Weather at Honeywell Inc. Heliport [CLOSED]

Public forecast

Using degrees Fahrenheit for public forecast. Weather courtesy of forecast.io.

Closest aviation weather report (METAR) to Honeywell Inc. Heliport

Closest report is Phoenix Deer Valley Airport, 5.5 nm (10.2 km) ENE. Retrieved 2021/06/20 01:53 UTC (45 minutes ago):

KDVT 200153Z 27011KT 10SM CLR 44/06 A2957 RMK AO2 SLP981 T04390061

Closest aviation forecast (TAF) to Honeywell Inc. Heliport

Closest forecast is Phoenix Deer Valley Airport, 5.5 nm (10.2 km) ENE. Retrieved 2021-06-20 00:39 UTC (2 hours ago):

TAF KDVT 192336Z 2000/2024 24015G22KT P6SM SKC FM200300 23010KT P6SM SKC FM200800 VRB05KT P6SM FEW150 FEW250 FM201600 20010KT P6SM SKC FM201900 24014G24KT P6SM SKC